createdAt,value
2019-01-25T00:01:02.556Z,32.20
2019-01-25T00:03:31.358Z,32.57
2019-01-25T00:06:00.270Z,34.90
2019-01-25T00:08:29.880Z,33.47
2019-01-25T00:10:58.746Z,32.90
2019-01-25T00:13:27.527Z,32.47
2019-01-25T00:15:56.338Z,33.57
2019-01-25T00:18:25.123Z,31.83
2019-01-25T00:20:54.034Z,33.53
2019-01-25T00:23:22.838Z,32.70
2019-01-25T00:25:51.658Z,32.57
2019-01-25T00:28:20.978Z,32.67
2019-01-25T00:30:49.756Z,33.07
2019-01-25T00:33:19.106Z,32.97
2019-01-25T00:35:47.894Z,32.93
2019-01-25T00:38:16.772Z,33.27
2019-01-25T00:40:46.030Z,32.30
2019-01-25T00:43:50.015Z,32.70
2019-01-25T00:46:18.852Z,33.73
2019-01-25T00:48:47.903Z,33.03
2019-01-25T00:51:17.052Z,32.37
2019-01-25T00:53:45.855Z,31.30
2019-01-25T00:56:14.784Z,32.77
2019-01-25T00:58:43.753Z,32.40
2019-01-25T01:01:12.570Z,33.00
2019-01-25T01:03:41.557Z,33.37
2019-01-25T01:06:10.655Z,33.23
2019-01-25T01:08:39.466Z,32.10
2019-01-25T01:11:08.370Z,33.43
2019-01-25T01:13:37.316Z,32.43
2019-01-25T01:16:06.126Z,33.03
2019-01-25T01:18:34.873Z,32.37
2019-01-25T01:21:03.766Z,31.27
2019-01-25T01:23:32.600Z,32.87
2019-01-25T01:26:01.358Z,32.47
2019-01-25T01:28:30.314Z,32.93
2019-01-25T01:30:59.120Z,32.00
2019-01-25T01:33:27.998Z,31.77
2019-01-25T01:35:56.766Z,32.10
2019-01-25T01:38:25.638Z,33.80
2019-01-25T01:40:54.624Z,30.97
2019-01-25T01:43:23.671Z,32.57
2019-01-25T01:45:52.429Z,32.60
2019-01-25T01:48:21.448Z,31.73
2019-01-25T01:50:50.270Z,32.50
2019-01-25T01:53:19.069Z,32.05
2019-01-25T01:55:47.814Z,31.13
2019-01-25T01:58:16.741Z,32.43
2019-01-25T02:00:45.878Z,32.20
2019-01-25T02:03:14.758Z,30.07
2019-01-25T02:05:43.608Z,33.20
2019-01-25T02:08:12.346Z,32.58
2019-01-25T02:10:41.168Z,33.13
2019-01-25T02:13:09.972Z,32.43
2019-01-25T02:15:38.708Z,32.77
2019-01-25T02:18:07.742Z,32.80
2019-01-25T02:20:36.505Z,33.30
2019-01-25T02:23:05.341Z,32.37
2019-01-25T02:25:34.179Z,31.33
2019-01-25T02:28:02.953Z,32.43
2019-01-25T02:30:31.854Z,32.10
2019-01-25T02:33:01.357Z,33.93
2019-01-25T02:35:30.244Z,32.57
2019-01-25T02:37:58.997Z,31.90
2019-01-25T02:40:27.786Z,33.70
2019-01-25T02:42:56.567Z,32.97
2019-01-25T02:45:25.347Z,32.50
2019-01-25T02:47:54.072Z,35.80
2019-01-25T02:50:23.005Z,33.67
2019-01-25T02:52:51.854Z,33.73
2019-01-25T02:55:20.653Z,33.70
2019-01-25T02:57:49.566Z,35.00
2019-01-25T03:00:20.198Z,34.65
2019-01-25T03:02:49.206Z,34.73
2019-01-25T03:05:20.912Z,35.13
2019-01-25T03:07:50.078Z,34.57
2019-01-25T03:10:19.185Z,34.30
2019-01-25T03:12:48.048Z,32.80
2019-01-25T03:15:17.984Z,35.20
2019-01-25T03:17:46.781Z,35.53
2019-01-25T03:20:15.907Z,36.23
2019-01-25T03:22:44.818Z,33.47
2019-01-25T03:25:14.947Z,34.63
2019-01-25T03:27:43.759Z,36.17
2019-01-25T03:30:13.545Z,34.60
2019-01-25T03:32:44.364Z,35.90
2019-01-25T03:35:14.123Z,33.77
2019-01-25T03:37:43.262Z,37.23
2019-01-25T03:40:14.638Z,33.97
2019-01-25T03:42:43.414Z,34.57
2019-01-25T03:45:12.852Z,36.23
2019-01-25T03:47:41.694Z,35.30
2019-01-25T03:50:11.547Z,37.87
2019-01-25T03:52:40.342Z,35.37
2019-01-25T03:55:09.817Z,35.50
2019-01-25T03:57:38.625Z,34.20
2019-01-25T04:00:09.379Z,34.40
2019-01-25T04:02:38.182Z,33.83
2019-01-25T04:05:07.690Z,34.47
2019-01-25T04:07:36.476Z,32.13
2019-01-25T04:10:07.119Z,34.37
2019-01-25T04:12:35.918Z,37.63
2019-01-25T04:15:05.720Z,37.50
2019-01-25T04:17:34.724Z,37.87
2019-01-25T04:20:03.578Z,39.90
2019-01-25T04:22:32.329Z,39.90
2019-01-25T04:25:01.179Z,38.10
2019-01-25T04:27:30.266Z,37.07
2019-01-25T04:29:59.096Z,38.50
2019-01-25T04:32:27.965Z,38.97
2019-01-25T04:34:56.882Z,37.83
2019-01-25T04:37:25.955Z,37.77
2019-01-25T04:39:54.726Z,37.33
2019-01-25T04:42:23.479Z,38.10
2019-01-25T04:44:52.283Z,39.83
2019-01-25T04:47:26.587Z,39.50
2019-01-25T04:49:55.651Z,42.27
2019-01-25T04:52:24.427Z,41.10
2019-01-25T04:54:54.028Z,42.07
2019-01-25T04:57:22.786Z,42.20
2019-01-25T04:59:52.999Z,39.47
2019-01-25T05:02:21.789Z,40.00
2019-01-25T05:04:51.298Z,40.73
2019-01-25T05:07:20.831Z,39.50
2019-01-25T05:09:49.870Z,40.23
2019-01-25T05:12:18.656Z,42.50
2019-01-25T05:14:47.501Z,40.47
2019-01-25T05:17:16.336Z,41.50
2019-01-25T05:19:45.096Z,40.93
2019-01-25T05:22:13.975Z,40.13
2019-01-25T05:24:42.702Z,40.00
2019-01-25T05:27:11.993Z,41.33
2019-01-25T05:29:48.417Z,41.73
2019-01-25T05:32:17.268Z,39.20
2019-01-25T05:34:46.084Z,39.80
2019-01-25T05:37:14.915Z,41.97
2019-01-25T05:39:43.808Z,41.20
2019-01-25T05:42:12.639Z,40.03
2019-01-25T05:44:41.558Z,39.93
2019-01-25T05:47:11.226Z,39.83
2019-01-25T05:49:40.094Z,38.30
2019-01-25T05:52:13.161Z,37.03
2019-01-25T05:54:42.030Z,40.30
2019-01-25T05:57:10.956Z,38.67
2019-01-25T05:59:40.020Z,37.20
2019-01-25T06:02:08.831Z,37.47
2019-01-25T06:04:40.397Z,38.10
2019-01-25T06:07:09.258Z,37.33
2019-01-25T06:09:38.406Z,37.17
2019-01-25T06:12:10.047Z,33.75
2019-01-25T06:14:38.827Z,33.60
2019-01-25T06:17:07.792Z,31.87
2019-01-25T06:19:37.305Z,33.67
2019-01-25T06:22:06.106Z,31.77
2019-01-25T06:24:34.970Z,30.43
2019-01-25T06:27:03.849Z,30.63
2019-01-25T06:29:33.507Z,30.60
2019-01-25T06:32:02.610Z,29.50
2019-01-25T06:34:31.477Z,29.43
2019-01-25T06:37:00.228Z,28.67
2019-01-25T06:39:29.026Z,30.70
2019-01-25T06:41:57.930Z,29.47
2019-01-25T06:44:26.722Z,28.50
2019-01-25T06:46:55.609Z,26.80
2019-01-25T06:49:24.426Z,27.97
2019-01-25T06:51:53.207Z,26.50
2019-01-25T06:54:22.001Z,27.63
2019-01-25T06:56:50.859Z,24.63
2019-01-25T06:59:36.257Z,25.20
2019-01-25T07:02:15.031Z,26.37
2019-01-25T07:04:43.967Z,26.70
2019-01-25T07:07:32.846Z,28.03
2019-01-25T07:10:01.687Z,26.57
2019-01-25T07:12:30.462Z,36.43
2019-01-25T07:14:59.255Z,32.23
2019-01-25T07:17:28.062Z,26.37
2019-01-25T07:19:57.628Z,26.63
2019-01-25T07:22:27.181Z,27.07
2019-01-25T07:24:57.278Z,26.50
2019-01-25T07:27:26.342Z,23.63
2019-01-25T07:29:55.197Z,22.40
2019-01-25T07:32:23.947Z,22.30
2019-01-25T07:34:52.875Z,21.87
2019-01-25T07:37:21.761Z,23.37
2019-01-25T07:40:12.196Z,23.40
2019-01-25T07:42:45.182Z,22.13
2019-01-25T07:45:14.814Z,22.83
2019-01-25T07:47:43.703Z,21.23
2019-01-25T07:50:12.577Z,21.47
2019-01-25T07:52:41.598Z,20.63
2019-01-25T07:55:10.597Z,22.60
2019-01-25T07:57:39.504Z,22.90
2019-01-25T08:00:10.582Z,22.67
2019-01-25T08:02:39.409Z,22.40
2019-01-25T08:05:08.184Z,22.80
2019-01-25T08:07:37.105Z,22.07
2019-01-25T08:10:06.836Z,22.87
2019-01-25T08:12:35.663Z,22.40
2019-01-25T08:15:05.480Z,20.73
2019-01-25T08:17:34.334Z,20.17
2019-01-25T08:20:03.185Z,18.77
2019-01-25T08:22:32.099Z,20.00
2019-01-25T08:25:01.035Z,20.30
2019-01-25T08:27:30.208Z,20.57
2019-01-25T08:29:59.129Z,19.83
2019-01-25T08:32:28.099Z,20.47
2019-01-25T08:34:57.533Z,21.27
2019-01-25T08:37:26.338Z,18.97
2019-01-25T08:39:55.314Z,17.03
2019-01-25T08:42:24.134Z,19.30
2019-01-25T08:44:52.984Z,17.60
2019-01-25T08:47:22.714Z,18.70
2019-01-25T08:49:57.799Z,17.13
2019-01-25T08:52:22.264Z,17.57
2019-01-25T08:54:51.873Z,18.23
2019-01-25T08:57:20.637Z,17.80
2019-01-25T08:59:49.643Z,17.07
2019-01-25T09:02:18.514Z,18.70
2019-01-25T09:04:47.317Z,16.80
2019-01-25T09:07:16.661Z,16.47
2019-01-25T09:09:45.484Z,17.63
2019-01-25T09:12:14.328Z,17.30
2019-01-25T09:14:43.153Z,17.13
2019-01-25T09:17:11.927Z,16.83
2019-01-25T09:19:40.779Z,18.33
2019-01-25T09:22:09.840Z,16.00
2019-01-25T09:24:38.654Z,17.27
2019-01-25T09:27:07.595Z,15.73
2019-01-25T09:29:36.539Z,17.40
2019-01-25T09:32:05.755Z,16.87
2019-01-25T09:34:34.548Z,17.00
2019-01-25T09:37:03.343Z,17.77
2019-01-25T09:39:32.254Z,18.77
2019-01-25T09:42:01.063Z,18.03
2019-01-25T09:44:29.991Z,19.07
2019-01-25T09:46:58.887Z,18.57
2019-01-25T09:49:27.702Z,17.40
2019-01-25T09:51:56.693Z,18.37
2019-01-25T09:54:26.738Z,17.97
2019-01-25T09:56:55.585Z,17.37
2019-01-25T09:59:24.443Z,18.70
2019-01-25T10:01:53.847Z,19.47
2019-01-25T10:04:22.717Z,17.57
2019-01-25T10:06:51.589Z,18.43
2019-01-25T10:09:20.420Z,17.87
2019-01-25T10:11:49.262Z,19.20
2019-01-25T10:14:18.308Z,17.50
2019-01-25T10:16:49.094Z,18.20
2019-01-25T10:19:17.898Z,17.83
2019-01-25T10:21:46.748Z,18.20
2019-01-25T10:24:15.601Z,16.93
2019-01-25T10:26:44.623Z,19.67
2019-01-25T10:29:13.456Z,19.10
2019-01-25T10:31:42.285Z,19.93
2019-01-25T10:34:11.215Z,18.93
2019-01-25T10:36:40.003Z,20.33
2019-01-25T10:39:09.134Z,19.77
2019-01-25T10:41:37.922Z,19.23
2019-01-25T10:44:07.815Z,21.27
2019-01-25T10:46:36.898Z,19.73
2019-01-25T10:49:05.694Z,18.87
2019-01-25T10:52:13.676Z,20.23
2019-01-25T10:54:42.482Z,19.97
2019-01-25T10:57:11.918Z,20.07
2019-01-25T10:59:40.766Z,19.20
2019-01-25T11:02:09.550Z,20.13
2019-01-25T11:04:38.474Z,19.93
2019-01-25T11:07:07.335Z,20.00
2019-01-25T11:09:38.012Z,21.00
2019-01-25T11:12:06.735Z,19.10
2019-01-25T11:14:35.523Z,20.10
2019-01-25T11:17:04.342Z,20.07
2019-01-25T11:19:33.260Z,21.27
2019-01-25T11:22:02.039Z,20.73
2019-01-25T11:24:30.938Z,19.40
2019-01-25T11:27:00.481Z,20.90
2019-01-25T11:29:30.170Z,20.63
2019-01-25T11:31:59.197Z,21.57
2019-01-25T11:34:27.986Z,20.60
2019-01-25T11:36:56.815Z,19.67
2019-01-25T11:39:25.591Z,22.93
2019-01-25T11:41:54.959Z,23.77
2019-01-25T11:44:23.777Z,22.80
2019-01-25T11:46:52.623Z,21.20
2019-01-25T11:49:21.434Z,22.37
2019-01-25T11:51:50.314Z,22.43
2019-01-25T11:54:19.070Z,23.40
2019-01-25T11:56:48.287Z,22.60
2019-01-25T11:59:17.314Z,24.67
2019-01-25T12:01:46.089Z,23.80
2019-01-25T12:04:15.300Z,24.30
2019-01-25T12:06:44.076Z,25.77
2019-01-25T12:09:12.962Z,25.97
2019-01-25T12:11:43.180Z,26.07
2019-01-25T12:14:12.028Z,26.10
2019-01-25T12:16:40.851Z,26.37
2019-01-25T12:19:09.623Z,26.63
2019-01-25T12:21:38.419Z,24.10
2019-01-25T12:24:07.257Z,26.17
2019-01-25T12:26:36.174Z,26.90
2019-01-25T12:29:06.670Z,27.63
2019-01-25T12:31:35.507Z,26.67
2019-01-25T12:34:04.546Z,30.97
2019-01-25T12:36:33.617Z,28.52
2019-01-25T12:39:02.991Z,29.23
2019-01-25T12:41:31.809Z,30.47
2019-01-25T12:44:00.787Z,32.80
2019-01-25T12:46:32.109Z,31.30
2019-01-25T12:49:01.182Z,28.83
2019-01-25T12:51:38.674Z,31.37
2019-01-25T12:54:07.661Z,30.10
2019-01-25T12:56:37.194Z,32.83
2019-01-25T12:59:06.071Z,32.90
2019-01-25T13:01:35.235Z,36.65
2019-01-25T13:04:04.028Z,35.30
2019-01-25T13:06:32.835Z,34.53
2019-01-25T13:09:01.647Z,35.67
2019-01-25T13:11:33.235Z,35.10
2019-01-25T13:14:02.039Z,36.23
2019-01-25T13:16:30.822Z,37.20
2019-01-25T13:18:59.747Z,37.10
2019-01-25T13:21:28.538Z,37.73
2019-01-25T13:23:57.356Z,38.33
2019-01-25T13:26:26.123Z,36.13
2019-01-25T13:28:56.715Z,38.50
2019-01-25T13:31:25.689Z,37.83
2019-01-25T13:33:54.714Z,39.80
2019-01-25T13:36:24.040Z,40.87
2019-01-25T13:38:52.950Z,41.93
2019-01-25T13:41:21.899Z,39.80
2019-01-25T13:43:50.779Z,41.77
2019-01-25T13:46:19.729Z,41.50
2019-01-25T13:48:48.681Z,42.83
2019-01-25T13:51:17.532Z,42.20
2019-01-25T13:53:46.482Z,43.45
2019-01-25T13:56:15.288Z,42.33
2019-01-25T13:58:44.263Z,45.00
2019-01-25T14:01:13.869Z,41.63
2019-01-25T14:03:42.842Z,43.70
2019-01-25T14:06:12.413Z,44.27
2019-01-25T14:08:41.271Z,42.80
2019-01-25T14:11:10.110Z,43.27
2019-01-25T14:13:46.677Z,43.38
2019-01-25T14:16:11.638Z,44.73
2019-01-25T14:18:44.777Z,44.27
2019-01-25T14:21:11.099Z,45.23
2019-01-25T14:23:42.233Z,43.37
2019-01-25T14:26:11.155Z,45.03
2019-01-25T14:28:42.007Z,43.90
2019-01-25T14:31:10.834Z,44.57
2019-01-25T14:33:39.962Z,44.73
2019-01-25T14:36:08.783Z,43.17
2019-01-25T14:38:37.597Z,42.90
2019-01-25T14:41:06.459Z,42.73
2019-01-25T14:43:35.363Z,44.87
2019-01-25T14:46:04.548Z,45.77
2019-01-25T14:48:38.069Z,44.43
2019-01-25T14:51:03.979Z,44.47
2019-01-25T14:53:32.897Z,41.83
2019-01-25T14:56:04.324Z,47.60
2019-01-25T14:58:33.180Z,44.23
2019-01-25T15:01:01.979Z,43.47
2019-01-25T15:03:31.466Z,42.30
2019-01-25T15:06:01.034Z,44.80
2019-01-25T15:08:29.867Z,41.97
2019-01-25T15:10:58.796Z,41.43
2019-01-25T15:13:28.410Z,44.27
2019-01-25T15:15:57.226Z,43.27
2019-01-25T15:18:26.253Z,41.57
2019-01-25T15:20:55.123Z,41.33
2019-01-25T15:23:24.157Z,41.90
2019-01-25T15:25:52.973Z,41.40
2019-01-25T15:28:22.002Z,39.37
2019-01-25T15:30:50.922Z,38.83
2019-01-25T15:33:20.168Z,37.37
2019-01-25T15:35:49.557Z,36.30
2019-01-25T15:38:18.355Z,36.87
2019-01-25T15:40:47.190Z,35.23
2019-01-25T15:43:16.021Z,34.50
2019-01-25T15:45:44.872Z,34.13
2019-01-25T15:48:14.424Z,33.67
2019-01-25T15:50:43.984Z,34.03
2019-01-25T15:53:12.818Z,32.70
2019-01-25T15:55:41.616Z,31.17
2019-01-25T15:58:10.629Z,31.83
2019-01-25T16:00:39.520Z,30.43
2019-01-25T16:03:09.551Z,32.67
2019-01-25T16:05:40.430Z,29.40
2019-01-25T16:08:09.958Z,29.53
2019-01-25T16:10:38.865Z,30.73
2019-01-25T16:13:08.016Z,31.20
2019-01-25T16:15:36.970Z,29.50
2019-01-25T16:18:05.851Z,29.67
2019-01-25T16:20:34.925Z,29.40
2019-01-25T16:23:03.814Z,30.43
2019-01-25T16:25:35.657Z,29.03
2019-01-25T16:28:05.156Z,27.20
2019-01-25T16:30:35.353Z,26.60
2019-01-25T16:33:04.462Z,25.73
2019-01-25T16:35:33.613Z,26.20
2019-01-25T16:38:02.979Z,26.90
2019-01-25T16:40:31.889Z,25.07
2019-01-25T16:43:00.655Z,24.33
2019-01-25T16:45:31.055Z,25.53
2019-01-25T16:48:00.219Z,24.23
2019-01-25T16:50:29.310Z,24.57
2019-01-25T16:52:58.917Z,23.77
2019-01-25T16:55:27.736Z,23.50
2019-01-25T16:57:56.650Z,22.43
2019-01-25T17:00:29.797Z,23.77
2019-01-25T17:02:58.654Z,24.53
2019-01-25T17:05:27.507Z,22.60
2019-01-25T17:07:56.375Z,22.20
2019-01-25T17:10:25.235Z,22.23
2019-01-25T17:12:54.365Z,21.97
2019-01-25T17:15:23.475Z,23.07
2019-01-25T17:17:52.352Z,22.13
2019-01-25T17:20:21.713Z,24.07
2019-01-25T17:22:51.147Z,24.00
2019-01-25T17:25:20.218Z,25.63
2019-01-25T17:27:50.046Z,27.10
2019-01-25T17:30:20.371Z,25.87
2019-01-25T17:32:51.662Z,21.73
2019-01-25T17:35:20.488Z,22.77
2019-01-25T17:37:49.327Z,22.13
2019-01-25T17:40:18.558Z,21.30
2019-01-25T17:42:53.721Z,21.57
2019-01-25T17:45:22.519Z,22.33
2019-01-25T17:47:51.876Z,22.13
2019-01-25T17:50:21.712Z,21.90
2019-01-25T17:52:50.660Z,22.43
2019-01-25T17:55:21.840Z,21.53
2019-01-25T17:57:50.789Z,21.70
2019-01-25T18:00:26.264Z,22.10
2019-01-25T18:02:55.395Z,21.90
2019-01-25T18:05:24.948Z,21.87
2019-01-25T18:07:54.118Z,21.80
2019-01-25T18:10:23.169Z,20.63
2019-01-25T18:12:53.277Z,22.97
2019-01-25T18:15:22.320Z,20.33
2019-01-25T18:17:51.364Z,20.13
2019-01-25T18:20:20.638Z,20.97
2019-01-25T18:22:49.669Z,20.23
2019-01-25T18:25:23.518Z,19.77
2019-01-25T18:27:54.421Z,18.33
2019-01-25T18:30:35.777Z,18.83
2019-01-25T18:33:04.599Z,18.80
2019-01-25T18:35:33.583Z,18.13
2019-01-25T18:38:02.497Z,18.37
2019-01-25T18:40:32.161Z,18.60
2019-01-25T18:43:01.120Z,18.07
2019-01-25T18:45:30.157Z,17.57
2019-01-25T18:47:59.000Z,18.33
2019-01-25T18:50:28.356Z,18.10
2019-01-25T18:52:57.326Z,19.67
2019-01-25T18:55:26.962Z,19.57
2019-01-25T18:57:56.115Z,19.40
2019-01-25T19:00:26.137Z,18.97
2019-01-25T19:02:55.725Z,20.30
2019-01-25T19:05:25.170Z,18.07
2019-01-25T19:07:54.051Z,18.40
2019-01-25T19:10:23.864Z,20.50
2019-01-25T19:12:53.181Z,19.53
2019-01-25T19:15:23.684Z,18.90
2019-01-25T19:17:53.165Z,18.77
2019-01-25T19:20:22.189Z,19.23
2019-01-25T19:22:52.488Z,19.47
2019-01-25T19:25:21.747Z,17.73
2019-01-25T19:27:52.395Z,20.17
2019-01-25T19:30:23.220Z,18.37
2019-01-25T19:32:53.812Z,19.23
2019-01-25T19:35:22.767Z,20.60
2019-01-25T19:37:51.687Z,19.77
2019-01-25T19:40:22.127Z,19.93
2019-01-25T19:42:51.070Z,19.50
2019-01-25T19:45:21.070Z,20.63
2019-01-25T19:47:50.333Z,20.33
2019-01-25T19:50:19.984Z,20.47
2019-01-25T19:52:50.653Z,20.43
2019-01-25T19:55:20.703Z,20.77
2019-01-25T19:57:49.751Z,22.37
2019-01-25T20:00:21.393Z,21.90
2019-01-25T20:02:50.391Z,20.27
2019-01-25T20:05:20.042Z,21.43
2019-01-25T20:07:49.261Z,21.47
2019-01-25T20:10:19.797Z,19.53
2019-01-25T20:12:51.142Z,17.97
2019-01-25T20:15:20.588Z,17.70
2019-01-25T20:17:50.062Z,18.17
2019-01-25T20:20:20.891Z,18.17
2019-01-25T20:22:50.411Z,17.90
2019-01-25T20:25:19.386Z,17.83
2019-01-25T20:27:48.477Z,16.47
2019-01-25T20:30:37.993Z,17.63
2019-01-25T20:33:06.878Z,17.13
2019-01-25T20:35:37.067Z,16.87
2019-01-25T20:38:06.112Z,18.27
2019-01-25T20:40:35.750Z,16.40
2019-01-25T20:43:04.849Z,16.03
2019-01-25T20:45:34.714Z,16.77
2019-01-25T20:48:04.482Z,15.60
2019-01-25T20:50:33.919Z,15.50
2019-01-25T20:53:03.190Z,15.60
2019-01-25T20:55:34.546Z,15.23
2019-01-25T20:58:03.637Z,15.33
2019-01-25T21:00:33.557Z,14.07
2019-01-25T21:03:03.769Z,14.20
2019-01-25T21:05:32.737Z,14.93
2019-01-25T21:08:01.849Z,13.80
2019-01-25T21:10:31.050Z,13.50
2019-01-25T21:13:00.342Z,13.00
2019-01-25T21:15:35.018Z,13.17
2019-01-25T21:18:00.220Z,13.27
2019-01-25T21:20:30.598Z,12.03
2019-01-25T21:22:59.624Z,11.97
2019-01-25T21:25:28.965Z,13.03
2019-01-25T21:27:57.867Z,12.70
2019-01-25T21:30:27.901Z,12.97
2019-01-25T21:32:56.843Z,12.40
2019-01-25T21:35:28.294Z,12.67
2019-01-25T21:37:57.542Z,12.00
2019-01-25T21:40:27.548Z,10.87
2019-01-25T21:42:58.148Z,11.10
2019-01-25T21:45:28.387Z,12.83
2019-01-25T21:47:57.497Z,11.50
2019-01-25T21:50:27.605Z,12.73
2019-01-25T21:52:56.715Z,11.57
2019-01-25T21:55:26.313Z,12.03
2019-01-25T21:57:55.178Z,11.83
2019-01-25T22:00:25.724Z,12.87
2019-01-25T22:02:54.579Z,12.17
2019-01-25T22:05:23.545Z,11.57
2019-01-25T22:07:52.488Z,11.07
2019-01-25T22:10:24.422Z,10.97
2019-01-25T22:12:54.212Z,10.40
2019-01-25T22:15:23.299Z,9.68
2019-01-25T22:17:52.226Z,10.73
2019-01-25T22:20:22.332Z,11.10
2019-01-25T22:22:51.242Z,10.40
2019-01-25T22:25:20.238Z,10.87
2019-01-25T22:27:50.048Z,10.90
2019-01-25T22:30:19.714Z,11.10
2019-01-25T22:32:48.853Z,11.00
2019-01-25T22:35:18.116Z,10.83
2019-01-25T22:37:46.983Z,10.93
2019-01-25T22:40:17.286Z,10.87
2019-01-25T22:42:46.323Z,11.30
2019-01-25T22:45:32.844Z,11.07
2019-01-25T22:48:02.559Z,10.80
2019-01-25T22:50:32.740Z,11.07
2019-01-25T22:53:02.132Z,10.63
2019-01-25T22:55:31.045Z,10.13
2019-01-25T22:58:17.325Z,11.20
2019-01-25T23:01:08.071Z,12.07
2019-01-25T23:03:38.878Z,11.37
2019-01-25T23:06:26.901Z,10.80
2019-01-25T23:08:56.128Z,12.40
2019-01-25T23:11:25.324Z,12.27
2019-01-25T23:13:54.295Z,12.20
2019-01-25T23:16:23.120Z,12.57
2019-01-25T23:18:51.925Z,12.63
2019-01-25T23:21:23.086Z,13.03
2019-01-25T23:23:51.952Z,13.30
2019-01-25T23:26:21.033Z,12.90
2019-01-25T23:28:49.947Z,12.50
2019-01-25T23:31:19.018Z,12.70
2019-01-25T23:33:48.118Z,12.17
2019-01-25T23:36:17.254Z,11.93
2019-01-25T23:38:46.841Z,12.70
2019-01-25T23:41:16.822Z,12.57
2019-01-25T23:43:47.415Z,12.97
2019-01-25T23:46:18.457Z,11.67
2019-01-25T23:48:48.113Z,12.77
2019-01-25T23:51:22.946Z,12.53
2019-01-25T23:53:47.623Z,12.43
2019-01-25T23:56:16.481Z,11.87
2019-01-25T23:58:45.438Z,12.23
